Time;durP1;ratioP1;P1;durP2;ratioP2;P2;SDS_P1;SDS_P2;PMS_P1;PMS_P2;Temp;Humidity;BMP_temperature;BMP_pressure;BME280_temperature;BME280_humidity;BME280_pressure;Samples;Min_cycle;Max_cycle;Signal;HPM_P1;HPM_P2
2022/05/29 00:02:12;;;;;;;4.70;1.20;;;;;;;24.75;31.54;101622.31;5103972;28;20032;-44
2022/05/29 00:04:41;;;;;;;4.82;1.65;;;;;;;24.60;31.37;101616.72;5104170;28;20038;-45
2022/05/29 00:07:13;;;;;;;5.45;1.38;;;;;;;24.64;31.56;101615.94;5102832;28;20358;-45
2022/05/29 00:09:44;;;;;;;8.07;1.92;;;;;;;24.55;31.84;101617.53;5074071;28;20553;-44
2022/05/29 00:12:13;;;;;;;6.15;1.45;;;;;;;24.43;31.79;101583.16;5103808;28;20519;-44
2022/05/29 00:14:43;;;;;;;3.75;1.30;;;;;;;24.59;31.49;101608.00;5103816;28;20028;-48
2022/05/29 00:17:12;;;;;;;5.13;1.30;;;;;;;24.47;31.63;101602.50;5104072;28;20023;-43
2022/05/29 00:19:40;;;;;;;4.53;1.02;;;;;;;24.50;31.46;101607.78;5103856;28;20077;-44
2022/05/29 00:22:11;;;;;;;4.15;1.30;;;;;;;24.36;31.74;101592.66;5090594;28;20027;-44
2022/05/29 00:24:40;;;;;;;4.10;1.20;;;;;;;24.45;31.83;101598.97;5102577;28;20106;-45
2022/05/29 00:27:11;;;;;;;4.20;1.20;;;;;;;24.38;31.66;101585.69;5085360;28;20035;-45
2022/05/29 00:29:40;;;;;;;5.10;1.42;;;;;;;24.46;31.56;101598.09;5103754;28;20028;-46
2022/05/29 00:32:09;;;;;;;3.80;1.40;;;;;;;24.37;32.03;101597.03;5074394;28;20777;-46
2022/05/29 00:34:38;;;;;;;3.85;1.20;;;;;;;24.47;31.84;101595.50;5102054;28;20078;-48
2022/05/29 00:37:07;;;;;;;3.80;1.25;;;;;;;24.51;31.57;101601.69;5104074;28;20028;-43
2022/05/29 00:39:36;;;;;;;5.35;1.92;;;;;;;24.41;32.13;101603.22;5076327;28;20384;-45
2022/05/29 00:42:06;;;;;;;4.95;1.25;;;;;;;24.46;31.64;101601.59;5103338;28;20449;-44
2022/05/29 00:44:35;;;;;;;5.28;1.85;;;;;;;24.45;31.73;101604.19;5103603;28;20035;-46
2022/05/29 00:47:23;;;;;;;4.93;1.00;;;;;;;24.43;31.95;101601.53;5103758;28;20404;-47
2022/05/29 00:49:52;;;;;;;8.32;1.80;;;;;;;24.46;31.72;101603.34;5102442;28;20439;-44
2022/05/29 00:52:24;;;;;;;4.80;1.50;;;;;;;24.41;31.63;101601.50;5103584;28;20066;-48
2022/05/29 00:54:53;;;;;;;2.88;0.80;;;;;;;24.44;31.87;101600.69;5103012;28;20078;-44
2022/05/29 00:57:27;;;;;;;3.40;1.20;;;;;;;24.35;31.64;101605.75;5107361;28;20106;-46
2022/05/29 00:59:57;;;;;;;4.22;1.30;;;;;;;24.37;32.09;101604.91;5105586;28;20043;-44
2022/05/29 01:02:26;;;;;;;5.53;1.45;;;;;;;24.37;32.13;101593.56;5106087;28;20077;-47
2022/05/29 01:04:54;;;;;;;5.78;1.83;;;;;;;24.46;31.67;101588.47;5107322;28;20484;-51
2022/05/29 01:07:24;;;;;;;3.75;1.13;;;;;;;24.53;31.90;101593.00;5106721;28;20028;-47
2022/05/29 01:09:53;;;;;;;3.28;1.15;;;;;;;24.48;31.97;101591.16;5105803;28;20541;-48
2022/05/29 01:12:34;;;;;;;5.10;1.63;;;;;;;24.43;32.25;101598.91;5105638;28;20055;-47
2022/05/29 01:15:10;;;;;;;4.25;1.20;;;;;;;24.46;31.71;101605.97;5105175;28;20146;-49
2022/05/29 01:17:56;;;;;;;5.60;1.20;;;;;;;24.40;31.58;101602.34;5106589;28;20507;-45
2022/05/29 01:20:31;;;;;;;5.65;1.15;;;;;;;24.39;31.75;101603.22;5107229;27;20110;-47
2022/05/29 01:23:24;;;;;;;7.72;1.98;;;;;;;24.40;31.80;101604.97;5104788;28;20998;-48
2022/05/29 01:26:12;;;;;;;7.15;1.65;;;;;;;24.42;32.10;101605.00;5100758;28;20039;-46
2022/05/29 01:29:01;;;;;;;5.63;1.17;;;;;;;24.34;32.20;101610.06;5103035;28;20039;-45
2022/05/29 01:31:50;;;;;;;4.93;1.25;;;;;;;24.49;32.04;101603.41;5099685;28;20059;-47
2022/05/29 01:34:24;;;;;;;4.05;1.40;;;;;;;24.47;31.74;101600.75;5099336;28;20044;-47
2022/05/29 01:37:12;;;;;;;2.90;0.85;;;;;;;24.52;31.61;101604.34;5105188;28;20028;-45
2022/05/29 01:40:03;;;;;;;4.63;1.02;;;;;;;24.51;31.83;101597.34;5103277;28;20039;-45
2022/05/29 01:42:46;;;;;;;4.28;1.40;;;;;;;24.55;31.77;101598.28;5105942;28;20023;-48
2022/05/29 01:45:27;;;;;;;3.60;1.00;;;;;;;24.40;31.78;101601.50;5106674;28;20068;-51
2022/05/29 01:48:17;;;;;;;4.57;1.30;;;;;;;24.38;32.05;101595.31;5106294;28;20497;-46
2022/05/29 01:50:53;;;;;;;3.53;0.95;;;;;;;24.39;31.73;101592.72;5106108;28;20038;-44
2022/05/29 01:53:27;;;;;;;3.47;1.15;;;;;;;24.38;31.93;101582.22;5104776;28;20473;-47
2022/05/29 01:55:59;;;;;;;4.72;1.20;;;;;;;24.39;31.86;101583.97;5106030;28;20131;-44
2022/05/29 01:58:38;;;;;;;2.35;1.00;;;;;;;24.37;31.76;101589.19;5106294;27;20051;-46
2022/05/29 02:01:09;;;;;;;5.68;0.82;;;;;;;24.38;31.68;101593.56;5104761;28;20024;-48
2022/05/29 02:03:41;;;;;;;3.92;1.30;;;;;;;24.30;31.78;101586.38;5105596;28;20038;-44
2022/05/29 02:06:14;;;;;;;1.52;0.60;;;;;;;24.20;32.14;101591.44;5077969;28;20024;-47
2022/05/29 02:08:43;;;;;;;3.58;1.45;;;;;;;24.24;32.33;101588.03;5104326;28;20336;-45
2022/05/29 02:11:15;;;;;;;3.72;1.20;;;;;;;24.34;31.69;101583.84;5106069;28;20040;-46
2022/05/29 02:14:06;;;;;;;3.03;1.00;;;;;;;24.34;31.75;101583.84;5104301;28;20031;-44
2022/05/29 02:16:44;;;;;;;3.08;0.93;;;;;;;24.39;31.70;101582.22;5105778;28;20031;-46
2022/05/29 02:19:17;;;;;;;4.22;1.00;;;;;;;24.40;32.01;101578.75;5105279;28;20016;-47
2022/05/29 02:22:08;;;;;;;4.03;0.90;;;;;;;24.29;31.94;101572.41;5105452;28;20032;-48
2022/05/29 02:24:39;;;;;;;4.57;1.00;;;;;;;24.21;31.87;101580.13;5105618;28;20027;-47
2022/05/29 02:27:12;;;;;;;2.75;0.98;;;;;;;24.16;32.03;101573.88;5104476;28;20102;-46
2022/05/29 02:29:42;;;;;;;4.28;1.23;;;;;;;24.23;32.18;101582.75;5104313;28;20027;-45
2022/05/29 02:32:23;;;;;;;3.15;0.88;;;;;;;24.25;31.84;101583.69;5105225;27;20023;-44
2022/05/29 02:35:06;;;;;;;3.85;1.10;;;;;;;24.30;32.15;101582.03;5105283;28;20035;-46
2022/05/29 02:37:42;;;;;;;3.33;0.90;;;;;;;24.32;32.02;101592.56;5105322;27;20397;-43
2022/05/29 02:40:30;;;;;;;3.40;0.80;;;;;;;24.30;31.97;101589.00;5104901;28;20405;-49
2022/05/29 02:43:07;;;;;;;3.45;1.10;;;;;;;24.24;32.20;101584.53;5100998;28;20400;-44
2022/05/29 02:45:46;;;;;;;4.28;1.08;;;;;;;24.31;32.05;101575.06;5103874;28;20028;-47
2022/05/29 02:48:44;;;;;;;2.70;0.80;;;;;;;24.31;31.66;101575.94;5103961;28;20477;-44
2022/05/29 02:51:31;;;;;;;3.90;1.00;;;;;;;24.34;31.67;101567.25;5102849;27;20039;-44
2022/05/29 02:54:00;;;;;;;3.20;0.80;;;;;;;24.32;32.04;101561.09;5103767;28;20516;-46
2022/05/29 02:56:28;;;;;;;5.35;1.25;;;;;;;24.35;32.04;101569.91;5104998;28;20126;-50
2022/05/29 02:58:56;;;;;;;3.92;0.93;;;;;;;24.32;32.05;101564.63;5104913;28;20054;-45
2022/05/29 03:01:26;;;;;;;2.80;0.70;;;;;;;24.27;32.32;101576.72;5104666;28;20027;-48
2022/05/29 03:04:14;;;;;;;3.25;0.80;;;;;;;24.33;31.77;101566.34;5104967;28;20111;-48
2022/05/29 03:06:47;;;;;;;3.95;0.95;;;;;;;24.33;32.54;101566.34;5098941;28;20042;-45
2022/05/29 03:09:25;;;;;;;3.80;0.60;;;;;;;24.41;31.55;101562.16;5104732;28;20024;-46
2022/05/29 03:11:53;;;;;;;3.60;0.95;;;;;;;24.45;31.59;101560.50;5104521;28;20040;-46
2022/05/29 03:14:26;;;;;;;2.75;0.80;;;;;;;24.38;31.82;101567.34;5103213;28;20031;-48
2022/05/29 03:17:09;;;;;;;2.47;0.95;;;;;;;24.38;31.70;101563.84;5103018;28;20088;-44
2022/05/29 03:20:03;;;;;;;2.58;0.73;;;;;;;24.36;31.61;101565.56;5104225;28;21220;-46
2022/05/29 03:22:45;;;;;;;2.97;1.13;;;;;;;24.30;32.18;101550.59;5101793;28;20122;-46
2022/05/29 03:25:25;;;;;;;2.25;0.55;;;;;;;24.27;31.69;101546.13;5103151;28;20063;-45
2022/05/29 03:27:55;;;;;;;3.15;0.82;;;;;;;24.31;32.12;101562.84;5104751;28;20019;-50
2022/05/29 03:30:34;;;;;;;1.98;0.70;;;;;;;24.30;32.15;101553.22;5104470;28;20073;-44
2022/05/29 03:33:06;;;;;;;2.38;0.90;;;;;;;24.38;31.61;101556.84;5103128;28;20019;-46
2022/05/29 03:35:37;;;;;;;2.67;0.82;;;;;;;24.26;32.12;101559.22;5104173;28;20401;-44
2022/05/29 03:38:06;;;;;;;2.45;0.70;;;;;;;24.16;32.43;101542.41;5102831;28;20038;-47
2022/05/29 03:40:35;;;;;;;4.22;1.15;;;;;;;24.21;31.75;101548.66;5104618;28;20023;-43
2022/05/29 03:43:04;;;;;;;3.05;0.98;;;;;;;24.21;32.21;101550.38;5104459;28;20178;-46
2022/05/29 03:45:33;;;;;;;4.82;0.90;;;;;;;24.18;32.11;101545.97;5103270;28;20061;-48
2022/05/29 03:48:02;;;;;;;3.72;0.90;;;;;;;24.26;32.05;101544.38;5104146;28;20503;-44
2022/05/29 03:50:30;;;;;;;2.38;0.93;;;;;;;24.22;32.18;101534.69;5103586;28;20084;-46
2022/05/29 03:53:00;;;;;;;2.10;0.90;;;;;;;24.19;31.87;101534.63;5103828;28;20020;-46
2022/05/29 03:55:29;;;;;;;5.88;0.82;;;;;;;24.15;31.99;101540.66;5104479;28;20388;-45
2022/05/29 03:57:57;;;;;;;3.53;1.00;;;;;;;24.25;32.32;101541.72;5104116;28;20073;-47
2022/05/29 04:00:27;;;;;;;5.00;1.02;;;;;;;24.27;31.71;101551.38;5104253;28;20024;-46
2022/05/29 04:02:55;;;;;;;2.03;0.77;;;;;;;24.25;32.19;101547.84;5104154;28;20023;-48
2022/05/29 04:05:26;;;;;;;2.58;0.77;;;;;;;24.26;32.19;101546.13;5104016;28;20533;-44
2022/05/29 04:13:38;;;;;;;2.25;0.80;;;;;;;24.30;32.04;101536.56;5102047;28;20035;-45
2022/05/29 04:16:07;;;;;;;1.95;0.70;;;;;;;24.14;32.36;101527.53;5102787;28;20027;-44
2022/05/29 04:18:36;;;;;;;2.60;0.80;;;;;;;24.19;31.87;101533.72;5103675;28;20059;-47
2022/05/29 04:21:05;;;;;;;2.67;0.70;;;;;;;24.16;31.98;101525.81;5103772;28;20063;-44
2022/05/29 04:23:34;;;;;;;1.83;0.63;;;;;;;24.17;32.12;101530.19;5103713;28;20024;-45
2022/05/29 04:26:02;;;;;;;4.25;0.90;;;;;;;24.16;32.02;101533.69;5104197;28;20030;-46
2022/05/29 04:28:31;;;;;;;2.65;0.85;;;;;;;24.12;32.32;101532.72;5103782;28;20023;-48
2022/05/29 04:30:59;;;;;;;3.92;1.00;;;;;;;24.22;32.02;101532.06;5106407;28;20067;-49
2022/05/29 04:33:28;;;;;;;3.45;0.50;;;;;;;24.17;31.98;101530.19;5107593;28;20114;-49
2022/05/29 04:35:58;;;;;;;2.65;1.00;;;;;;;24.01;31.90;101508.88;5107709;28;20026;-47
2022/05/29 04:38:28;;;;;;;1.52;0.60;;;;;;;24.17;31.97;101536.31;5107519;28;20024;-44
2022/05/29 04:40:57;;;;;;;3.03;0.98;;;;;;;24.17;32.08;101536.31;5107568;28;20425;-45
2022/05/29 04:43:26;;;;;;;1.90;0.80;;;;;;;24.09;32.03;101533.53;5107619;28;20020;-45
2022/05/29 04:45:56;;;;;;;4.53;1.13;;;;;;;24.17;31.66;101536.31;5107574;28;20031;-46
2022/05/29 04:48:24;;;;;;;2.88;0.75;;;;;;;24.10;32.05;101535.31;5106073;28;20198;-49
2022/05/29 04:51:03;;;;;;;2.13;0.60;;;;;;;24.15;32.03;101535.41;5107716;28;20028;-43
2022/05/29 04:53:32;;;;;;;2.90;0.82;;;;;;;24.18;31.75;101547.69;5107223;28;20043;-46
2022/05/29 04:56:02;;;;;;;5.47;1.10;;;;;;;24.06;32.29;101538.72;5107522;28;20047;-43
2022/05/29 04:58:31;;;;;;;2.33;0.77;;;;;;;24.10;32.16;101542.28;5107029;28;20051;-44
2022/05/29 05:01:00;;;;;;;1.52;0.70;;;;;;;24.07;31.97;101543.09;5107306;28;20023;-46
2022/05/29 05:03:30;;;;;;;1.95;0.68;;;;;;;24.09;32.17;101541.41;5107125;28;20039;-48
2022/05/29 05:05:58;;;;;;;4.88;1.10;;;;;;;24.12;31.82;101543.19;5107229;28;20036;-46
2022/05/29 05:08:27;;;;;;;3.78;0.93;;;;;;;23.97;31.83;101517.56;5106916;28;20461;-45
2022/05/29 05:10:55;;;;;;;3.25;1.35;;;;;;;24.09;32.12;101548.38;5106539;28;20079;-48
2022/05/29 05:13:24;;;;;;;3.45;1.05;;;;;;;24.12;31.97;101536.22;5107144;28;20104;-46
2022/05/29 05:15:59;;;;;;;3.80;0.70;;;;;;;24.14;32.14;101544.13;5107230;28;20038;-49
2022/05/29 05:18:28;;;;;;;4.03;0.98;;;;;;;24.21;31.70;101545.13;5106322;28;20606;-48
2022/05/29 05:20:56;;;;;;;2.65;0.50;;;;;;;24.19;31.85;101539.88;5106732;28;20122;-46
2022/05/29 05:23:25;;;;;;;3.38;0.90;;;;;;;24.28;31.64;101554.91;5106484;28;20028;-47
2022/05/29 05:25:53;;;;;;;3.67;1.08;;;;;;;24.24;31.54;101540.81;5106377;28;20548;-46
2022/05/29 05:28:22;;;;;;;3.88;0.82;;;;;;;24.20;32.00;101543.34;5106856;28;20026;-47
2022/05/29 05:30:50;;;;;;;2.55;0.82;;;;;;;24.16;31.75;101534.56;5106520;28;20034;-45
2022/05/29 05:33:19;;;;;;;4.28;0.93;;;;;;;24.30;31.97;101553.22;5106573;28;20031;-51
2022/05/29 05:35:47;;;;;;;1.42;0.70;;;;;;;24.35;31.77;101548.06;5105226;28;20052;-47
2022/05/29 05:38:16;;;;;;;2.83;0.77;;;;;;;24.38;31.48;101554.22;5106273;28;20035;-46
2022/05/29 05:40:44;;;;;;;3.83;0.93;;;;;;;24.35;31.74;101550.69;5106312;28;20374;-47
2022/05/29 05:43:13;;;;;;;1.80;0.60;;;;;;;24.39;31.67;101553.38;5106564;28;20108;-45
2022/05/29 05:45:43;;;;;;;3.30;0.82;;;;;;;24.49;31.44;101543.97;5106691;28;20484;-45
2022/05/29 05:48:11;;;;;;;3.20;0.85;;;;;;;24.54;31.56;101544.94;5104980;28;20451;-47
2022/05/29 05:50:40;;;;;;;3.83;0.88;;;;;;;24.57;31.78;101547.59;5106080;28;20048;-46
2022/05/29 05:53:09;;;;;;;2.13;0.70;;;;;;;24.61;31.72;101548.56;5105841;28;20024;-48
2022/05/29 05:55:39;;;;;;;2.75;0.80;;;;;;;24.68;31.82;101541.72;5106245;28;20492;-44
2022/05/29 05:58:06;;;;;;;3.22;0.80;;;;;;;24.70;31.87;101535.66;5106173;28;20059;-45
2022/05/29 06:00:35;;;;;;;1.83;0.95;;;;;;;24.77;31.54;101539.28;5105811;28;20489;-46
2022/05/29 06:03:03;;;;;;;2.38;0.95;;;;;;;24.79;31.42;101548.06;5106037;28;20035;-46
2022/05/29 06:05:32;;;;;;;2.42;0.77;;;;;;;24.84;31.52;101541.16;5105913;28;20035;-46
2022/05/29 06:08:00;;;;;;;2.78;0.68;;;;;;;24.81;31.63;101528.00;5105603;28;20206;-49
2022/05/29 06:10:29;;;;;;;3.00;0.70;;;;;;;24.97;31.43;101542.28;5105233;28;20066;-48
2022/05/29 06:13:03;;;;;;;4.40;1.25;;;;;;;25.05;31.43;101529.31;5087871;28;20167;-47
2022/05/29 06:15:32;;;;;;;3.25;1.08;;;;;;;25.11;31.24;101537.25;5105810;28;20485;-46
2022/05/29 06:18:00;;;;;;;3.08;1.10;;;;;;;25.13;31.08;101535.53;5105242;28;20028;-47
2022/05/29 06:20:29;;;;;;;4.15;1.17;;;;;;;25.15;31.67;101540.84;5105663;28;20151;-47
2022/05/29 06:22:57;;;;;;;3.83;1.15;;;;;;;25.14;31.47;101542.56;5105188;28;20384;-45
2022/05/29 06:25:26;;;;;;;3.22;0.95;;;;;;;25.19;31.54;101547.91;5105704;28;20041;-49
2022/05/29 06:27:53;;;;;;;4.45;0.70;;;;;;;25.28;31.29;101550.69;5105708;28;20106;-46
2022/05/29 06:30:22;;;;;;;6.03;1.02;;;;;;;25.28;31.22;101553.31;5105682;28;20027;-47
2022/05/29 06:32:50;;;;;;;0.85;0.60;;;;;;;25.25;31.24;101540.13;5104824;28;20059;-46
2022/05/29 06:35:19;;;;;;;3.40;0.52;;;;;;;25.29;31.18;101548.94;5104135;28;20553;-45
2022/05/29 06:37:48;;;;;;;1.77;0.63;;;;;;;25.34;31.08;101561.28;5105000;28;20070;-47
2022/05/29 06:40:15;;;;;;;2.70;0.80;;;;;;;25.39;30.98;101557.84;5105275;28;20028;-45
2022/05/29 06:42:44;;;;;;;3.65;0.93;;;;;;;25.41;30.97;101562.25;5105489;28;20016;-45
2022/05/29 06:45:15;;;;;;;2.28;0.70;;;;;;;25.44;31.03;101561.47;5105412;28;20038;-50
2022/05/29 06:47:43;;;;;;;4.15;1.05;;;;;;;25.42;30.86;101555.31;5105328;28;20081;-47
2022/05/29 06:50:12;;;;;;;6.97;1.02;;;;;;;25.46;30.25;101549.25;5104967;28;20028;-48
2022/05/29 06:52:40;;;;;;;5.70;0.95;;;;;;;25.39;30.27;101547.34;5104440;28;20476;-45
2022/05/29 06:55:09;;;;;;;4.43;1.25;;;;;;;25.38;30.27;101550.81;5104945;28;20039;-46
2022/05/29 06:57:36;;;;;;;2.65;0.82;;;;;;;25.43;30.15;101549.19;5105377;28;20019;-44
2022/05/29 07:08:31;;;;;;;1.63;0.60;;;;;;;25.50;29.66;101556.31;5097410;28;20032;-45
2022/05/29 07:11:03;;;;;;;4.25;1.13;;;;;;;25.44;28.78;101549.22;5104631;28;20079;-45
2022/05/29 07:13:32;;;;;;;3.58;0.88;;;;;;;25.38;28.92;101542.94;5103439;28;20154;-45
2022/05/29 07:16:01;;;;;;;4.70;0.90;;;;;;;25.45;29.05;101552.75;5104634;28;20042;-46
2022/05/29 07:18:29;;;;;;;5.60;0.95;;;;;;;25.43;29.15;101563.19;5104517;28;20035;-47
2022/05/29 07:21:07;;;;;;;4.07;0.95;;;;;;;25.49;28.99;101557.16;5104685;28;20031;-45
2022/05/29 07:23:36;;;;;;;4.28;0.88;;;;;;;25.52;29.23;101554.59;5104525;28;20031;-45
2022/05/29 07:26:05;;;;;;;2.97;1.00;;;;;;;25.53;28.18;101551.09;5104833;28;20031;-44
2022/05/29 07:28:33;;;;;;;10.35;1.50;;;;;;;25.46;28.27;101549.25;5104794;28;20023;-47
2022/05/29 07:31:03;;;;;;;4.57;0.95;;;;;;;25.46;28.44;101549.25;5103911;28;20107;-48
2022/05/29 07:33:31;;;;;;;4.82;1.00;;;;;;;25.42;28.03;101553.56;5104138;28;20027;-49
2022/05/29 07:36:00;;;;;;;3.72;0.70;;;;;;;25.49;28.30;101557.16;5104457;27;20030;-50
2022/05/29 07:38:29;;;;;;;8.07;1.40;;;;;;;25.46;27.86;101558.00;5104313;28;20027;-49
2022/05/29 07:40:57;;;;;;;2.63;1.00;;;;;;;25.37;28.55;101539.44;5104219;28;20028;-45
2022/05/29 07:43:26;;;;;;;6.25;1.23;;;;;;;25.44;27.72;101548.34;5104395;28;20464;-46
2022/05/29 07:45:57;;;;;;;3.25;0.85;;;;;;;25.30;27.89;101530.59;5104346;28;20023;-46
2022/05/29 07:48:27;;;;;;;3.33;0.90;;;;;;;25.48;27.63;101550.16;5103674;28;20046;-46
2022/05/29 07:50:56;;;;;;;2.17;0.70;;;;;;;25.52;27.87;101544.09;5104464;28;20024;-44
2022/05/29 07:53:25;;;;;;;4.13;0.95;;;;;;;25.51;27.84;101549.31;5104190;28;20031;-46
2022/05/29 07:55:53;;;;;;;3.30;0.82;;;;;;;25.53;27.67;101537.97;5103971;28;20030;-44
2022/05/29 07:58:22;;;;;;;2.20;0.70;;;;;;;25.58;26.90;101559.94;5103787;28;20024;-44
2022/05/29 08:00:50;;;;;;;4.80;1.38;;;;;;;25.47;27.55;101537.91;5104138;28;20031;-45
2022/05/29 08:03:19;;;;;;;4.57;1.40;;;;;;;25.44;27.15;101543.09;5104253;28;20050;-46
2022/05/29 08:05:47;;;;;;;5.75;1.20;;;;;;;25.43;26.18;101554.47;5106369;28;20476;-45
2022/05/29 08:08:15;;;;;;;5.22;1.40;;;;;;;25.34;26.24;101553.41;5108162;28;20032;-45
2022/05/29 08:10:44;;;;;;;2.22;1.00;;;;;;;25.20;26.06;101561.91;5106210;28;20385;-43
2022/05/29 08:13:14;;;;;;;2.58;0.60;;;;;;;25.14;26.44;101547.81;5108362;28;20103;-43
2022/05/29 08:15:42;;;;;;;3.78;0.85;;;;;;;24.91;26.71;101501.91;5106928;28;20034;-45
2022/05/29 08:18:11;;;;;;;4.72;0.90;;;;;;;25.06;26.87;101533.69;5108265;28;20081;-45
2022/05/29 08:20:40;;;;;;;2.95;1.00;;;;;;;25.11;27.41;101546.91;5108137;28;20076;-45
2022/05/29 08:23:08;;;;;;;5.60;1.40;;;;;;;25.10;27.32;101530.25;5106643;28;20028;-43
2022/05/29 08:31:12;;;;;;;3.90;1.45;;;;;;;25.15;27.75;101525.09;5100598;28;20088;-47
2022/05/29 08:33:40;;;;;;;4.38;1.20;;;;;;;25.09;27.22;101533.72;5107784;28;20062;-44
2022/05/29 08:36:13;;;;;;;3.53;1.63;;;;;;;25.04;26.62;101524.91;5108016;28;20561;-46
2022/05/29 08:38:44;;;;;;;2.78;1.38;;;;;;;25.04;27.28;101540.66;5106310;28;20032;-47
2022/05/29 08:41:16;;;;;;;3.78;1.67;;;;;;;25.05;27.20;101524.06;5107752;28;20039;-45
2022/05/29 08:44:09;;;;;;;6.25;1.63;;;;;;;25.00;27.26;101523.06;5106310;28;20024;-45
2022/05/29 08:46:38;;;;;;;2.35;1.00;;;;;;;25.13;26.77;101518.94;5107017;28;20116;-44
2022/05/29 08:49:07;;;;;;;6.45;1.50;;;;;;;25.08;27.11;101507.47;5107539;28;20392;-43
2022/05/29 08:51:55;;;;;;;5.10;1.20;;;;;;;25.14;27.05;101510.19;5105839;28;20119;-45
2022/05/29 08:55:01;;;;;;;6.70;1.25;;;;;;;25.03;26.67;101516.13;5103333;28;20047;-44
2022/05/29 08:57:54;;;;;;;2.72;0.75;;;;;;;25.12;26.25;101509.28;5099536;28;20445;-46
2022/05/29 09:00:45;;;;;;;6.05;1.58;;;;;;;25.09;26.40;101502.22;5072355;28;20039;-44
2022/05/29 09:03:25;;;;;;;6.25;1.13;;;;;;;25.02;26.32;101497.75;5100637;28;20032;-44
2022/05/29 09:05:59;;;;;;;3.00;0.95;;;;;;;25.06;26.52;101498.66;5107334;28;20111;-43
2022/05/29 09:08:33;;;;;;;1.42;0.70;;;;;;;25.10;26.82;101492.63;5107181;28;20539;-44
2022/05/29 09:11:06;;;;;;;2.45;0.98;;;;;;;25.10;26.51;101496.13;5107209;28;20043;-44
2022/05/29 09:13:44;;;;;;;2.90;0.85;;;;;;;25.09;26.42;101485.59;5105493;28;20582;-46
2022/05/29 09:16:16;;;;;;;2.67;0.80;;;;;;;25.03;26.67;101489.88;5106444;28;20035;-44
2022/05/29 09:19:00;;;;;;;2.72;0.60;;;;;;;25.04;26.62;101490.78;5106943;28;20027;-44
2022/05/29 09:21:37;;;;;;;1.88;0.50;;;;;;;25.03;26.71;101505.63;5105738;28;20034;-43
2022/05/29 09:24:15;;;;;;;1.63;0.75;;;;;;;25.09;26.71;101511.84;5105422;28;20038;-44
2022/05/29 09:26:43;;;;;;;2.20;0.68;;;;;;;25.08;27.01;101504.84;5105453;28;20038;-43
2022/05/29 09:29:12;;;;;;;6.68;1.27;;;;;;;24.99;27.10;101502.94;5106615;28;20042;-43
2022/05/29 09:31:41;;;;;;;2.45;0.80;;;;;;;24.98;26.93;101488.94;5106805;28;20032;-45
2022/05/29 09:34:08;;;;;;;2.55;0.88;;;;;;;25.05;26.97;101499.53;5105198;28;20035;-46
2022/05/29 09:37:00;;;;;;;3.17;0.70;;;;;;;25.15;26.94;101502.34;5106730;28;20024;-45
2022/05/29 09:39:33;;;;;;;1.77;0.60;;;;;;;25.14;27.12;101487.44;5104008;28;20040;-43
2022/05/29 09:42:24;;;;;;;3.58;0.80;;;;;;;25.15;26.85;101501.47;5105116;28;20049;-43
2022/05/29 09:45:22;;;;;;;3.67;0.68;;;;;;;25.04;26.47;101488.16;5106384;28;20468;-44
2022/05/29 09:50:57;;;;;;;2.55;1.08;;;;;;;25.17;26.36;101498.00;5100161;28;20031;-44
2022/05/29 09:53:28;;;;;;;4.25;0.80;;;;;;;25.16;26.09;101492.69;5103450;28;20419;-43
2022/05/29 09:56:01;;;;;;;2.47;0.95;;;;;;;25.01;26.37;101488.97;5105889;28;20053;-43
2022/05/29 09:58:36;;;;;;;1.17;0.55;;;;;;;24.93;26.24;101472.22;5106174;28;20036;-48
2022/05/29 10:01:07;;;;;;;3.53;0.98;;;;;;;24.94;26.54;101494.09;5104616;28;20951;-43
2022/05/29 10:03:50;;;;;;;2.45;0.70;;;;;;;24.94;26.21;101484.50;5104482;28;20028;-43
2022/05/29 10:06:41;;;;;;;4.63;1.23;;;;;;;25.01;26.59;101488.09;5104751;28;20050;-42
2022/05/29 10:09:12;;;;;;;2.42;0.73;;;;;;;24.99;26.43;101487.19;5074298;28;20100;-44
2022/05/29 10:11:41;;;;;;;2.55;1.02;;;;;;;24.93;26.17;101480.09;5105573;28;20140;-44
2022/05/29 10:14:48;;;;;;;4.68;0.93;;;;;;;24.99;26.16;101489.81;5105790;28;20035;-44
2022/05/29 10:17:32;;;;;;;2.83;1.00;;;;;;;25.03;26.31;101471.50;5105968;28;20042;-45
2022/05/29 10:20:01;;;;;;;2.47;0.75;;;;;;;25.06;26.19;101475.94;5104675;28;20024;-44
2022/05/29 10:22:39;;;;;;;3.75;0.75;;;;;;;25.04;26.55;101482.91;5105708;28;20076;-42
2022/05/29 10:25:28;;;;;;;3.88;0.80;;;;;;;25.00;26.69;101470.56;5105464;28;20034;-44
2022/05/29 10:28:00;;;;;;;3.45;0.93;;;;;;;24.95;26.89;101473.13;5102975;28;20042;-43
2022/05/29 10:30:34;;;;;;;3.05;1.08;;;;;;;25.01;26.97;101478.47;5105523;28;20102;-43
2022/05/29 10:33:08;;;;;;;5.22;0.70;;;;;;;25.07;26.56;101466.31;5104482;28;20496;-45
2022/05/29 10:35:38;;;;;;;2.83;0.70;;;;;;;25.11;26.53;101482.13;5105019;28;20040;-44
2022/05/29 10:38:28;;;;;;;2.17;0.75;;;;;;;24.94;25.80;101450.38;5105465;28;20494;-43
2022/05/29 10:40:57;;;;;;;3.85;1.02;;;;;;;25.01;25.81;101452.22;5103180;28;20028;-44
2022/05/29 10:43:37;;;;;;;3.25;0.90;;;;;;;25.03;25.81;101462.75;5104987;28;20118;-44
2022/05/29 10:46:26;;;;;;;2.53;0.70;;;;;;;25.07;26.15;101454.06;5105261;28;20039;-44
2022/05/29 10:49:34;;;;;;;3.55;0.98;;;;;;;25.08;26.52;101462.81;5101358;28;20122;-43
2022/05/29 10:52:02;;;;;;;;;;;;;;;25.18;25.00;101464.72;5105018;28;20055;-47
2022/05/29 10:54:50;;;;;;;1.50;0.52;;;;;;;25.20;25.17;101452.50;5105012;28;20015;-43
2022/05/29 10:57:51;;;;;;;4.13;0.50;;;;;;;25.11;24.80;101436.63;5101608;28;20115;-44
2022/05/29 11:00:51;;;;;;;1.85;0.60;;;;;;;25.06;25.82;101443.53;5100570;28;20031;-43
2022/05/29 11:03:39;;;;;;;2.47;0.73;;;;;;;25.12;25.81;101444.53;5103480;28;20097;-43
2022/05/29 11:06:09;;;;;;;2.35;0.80;;;;;;;25.07;25.26;101434.81;5100951;28;20040;-43
2022/05/29 11:08:41;;;;;;;2.20;0.75;;;;;;;25.07;24.84;101435.69;5104893;28;20028;-43
2022/05/29 11:11:13;;;;;;;4.32;0.77;;;;;;;25.04;24.82;101430.41;5104758;28;20198;-44
2022/05/29 11:14:04;;;;;;;5.20;1.00;;;;;;;25.03;24.97;101434.75;5103172;28;20024;-44
2022/05/29 11:16:55;;;;;;;2.90;0.40;;;;;;;25.01;24.96;101420.72;5101037;28;20122;-44
2022/05/29 11:19:28;;;;;;;3.03;0.52;;;;;;;25.06;25.16;101417.28;5101870;28;20077;-44
2022/05/29 11:22:00;;;;;;;2.15;0.70;;;;;;;25.12;25.35;101413.00;5104726;28;20046;-45
2022/05/29 11:24:37;;;;;;;1.88;0.65;;;;;;;25.01;25.16;101415.47;5104776;28;20035;-46
2022/05/29 11:27:15;;;;;;;1.50;0.70;;;;;;;25.09;24.94;101414.72;5103303;28;20031;-44
2022/05/29 11:29:44;;;;;;;4.57;0.85;;;;;;;25.13;24.74;101413.91;5104494;28;20034;-45
2022/05/29 11:32:13;;;;;;;6.18;1.10;;;;;;;25.06;24.38;101425.16;5104104;28;20027;-44
2022/05/29 11:34:48;;;;;;;3.17;0.85;;;;;;;25.03;24.80;101402.38;5104127;28;20409;-43
2022/05/29 11:37:36;;;;;;;3.08;0.73;;;;;;;25.03;24.67;101398.00;5104310;28;20023;-44
2022/05/29 11:40:28;;;;;;;2.10;0.88;;;;;;;24.98;24.32;101407.56;5104185;28;20510;-43
2022/05/29 11:43:34;;;;;;;2.17;0.70;;;;;;;25.00;24.28;101389.22;5102826;28;20076;-43
2022/05/29 11:52:23;;;;;;;2.10;0.60;;;;;;;25.02;24.90;101375.25;5096618;28;20204;-43
2022/05/29 11:55:03;;;;;;;1.67;0.55;;;;;;;25.07;24.86;101372.69;5104178;28;20031;-43
2022/05/29 11:57:35;;;;;;;3.53;1.02;;;;;;;24.99;24.77;101334.94;5104174;28;20092;-43
2022/05/29 12:00:10;;;;;;;1.90;0.80;;;;;;;24.85;24.69;101324.25;5104143;28;20019;-43
2022/05/29 12:03:07;;;;;;;3.10;0.70;;;;;;;25.17;24.58;101350.06;5102482;28;20055;-43
2022/05/29 12:05:39;;;;;;;1.40;0.68;;;;;;;24.99;25.17;101343.69;5099721;28;20388;-43
2022/05/29 12:08:08;;;;;;;6.47;1.23;;;;;;;25.03;25.37;101356.00;5103838;28;20027;-43
2022/05/29 12:11:04;;;;;;;1.90;0.57;;;;;;;25.04;25.18;101351.66;5103673;28;20397;-43
2022/05/29 12:13:41;;;;;;;5.47;1.27;;;;;;;25.10;25.10;101356.09;5103703;28;20035;-43
2022/05/29 12:16:13;;;;;;;1.35;0.63;;;;;;;25.09;25.25;101356.97;5104260;28;20065;-44
2022/05/29 12:18:48;;;;;;;1.27;0.55;;;;;;;25.06;25.39;101342.06;5103784;28;20057;-43
2022/05/29 12:21:29;;;;;;;1.98;0.80;;;;;;;25.12;24.84;101338.63;5102394;28;20028;-43
2022/05/29 12:24:00;;;;;;;2.33;0.60;;;;;;;25.07;25.30;101342.94;5104126;28;20415;-43
2022/05/29 12:26:37;;;;;;;2.15;0.70;;;;;;;25.12;25.45;101336.00;5103670;28;20063;-43